Time;durP1;ratioP1;P1;durP2;ratioP2;P2;SDS_P1;SDS_P2;PMS_P1;PMS_P2;Temp;Humidity;BMP_temperature;BMP_pressure;BME280_temperature;BME280_humidity;BME280_pressure;Samples;Min_cycle;Max_cycle;Signal;HPM_P1;HPM_P2
2022/04/11 05:25:43;;;;;;;1.67;1.50;;;3.40;99.90;;;;;;4998188;28;20332;-71
2022/04/11 05:28:13;;;;;;;3.07;1.93;;;3.30;99.90;;;;;;5009321;28;20183;-71
2022/04/11 05:30:41;;;;;;;3.90;2.07;;;3.40;99.90;;;;;;5051691;28;20183;-71
2022/04/11 05:33:10;;;;;;;3.33;2.43;;;3.60;99.90;;;;;;5011650;28;20199;-72
2022/04/11 05:35:35;;;;;;;2.90;2.50;;;3.80;99.90;;;;;;5003862;28;20188;-71
2022/04/11 05:38:03;;;;;;;4.17;2.70;;;4.00;99.90;;;;;;4969297;28;20191;-74
2022/04/11 05:40:31;;;;;;;4.00;2.60;;;4.20;99.90;;;;;;4990805;28;20180;-72
2022/04/11 05:42:59;;;;;;;3.63;2.60;;;4.30;99.90;;;;;;5013143;28;20183;-74
2022/04/11 05:45:24;;;;;;;3.23;2.87;;;4.50;99.90;;;;;;5018635;28;20206;-74
2022/04/11 05:47:50;;;;;;;4.60;3.30;;;4.60;99.90;;;;;;5014295;28;20435;-74
2022/04/11 05:50:18;;;;;;;3.87;3.10;;;4.80;99.90;;;;;;5008540;28;20172;-74
2022/04/11 05:52:44;;;;;;;3.40;2.80;;;4.90;99.90;;;;;;4985278;28;20207;-74
2022/04/11 05:55:12;;;;;;;3.43;2.70;;;5.10;99.90;;;;;;5020813;28;20175;-71
2022/04/11 05:57:38;;;;;;;3.67;2.77;;;5.20;99.90;;;;;;5018874;28;20191;-74
2022/04/11 06:00:04;;;;;;;3.97;2.80;;;5.30;99.90;;;;;;5014946;28;20267;-72
2022/04/11 06:02:32;;;;;;;3.27;2.60;;;5.50;99.90;;;;;;4988924;28;20200;-72
2022/04/11 06:04:57;;;;;;;3.83;2.50;;;5.60;99.90;;;;;;4987098;28;20218;-74
2022/04/11 06:07:27;;;;;;;3.10;2.70;;;5.70;99.90;;;;;;5020346;28;20176;-73
2022/04/11 06:09:53;;;;;;;9.43;6.87;;;5.80;99.90;;;;;;5019161;28;20194;-73
2022/04/11 06:12:20;;;;;;;6.87;4.70;;;5.90;99.90;;;;;;5029764;28;20184;-74
2022/04/11 06:14:53;;;;;;;4.93;3.70;;;6.00;99.90;;;;;;5057014;28;20205;-73
2022/04/11 06:17:23;;;;;;;4.03;3.40;;;6.10;99.90;;;;;;5018077;28;20199;-74
2022/04/11 06:19:49;;;;;;;4.10;3.00;;;6.20;99.90;;;;;;5016392;28;20179;-74
2022/04/11 06:22:15;;;;;;;4.87;3.60;;;6.30;99.90;;;;;;5016668;28;20262;-73
2022/04/11 06:24:43;;;;;;;4.33;3.00;;;6.40;99.90;;;;;;5013667;28;20298;-73
2022/04/11 06:27:14;;;;;;;4.67;3.20;;;6.50;99.90;;;;;;5001302;28;20176;-74
2022/04/11 06:29:45;;;;;;;4.37;3.17;;;6.60;99.90;;;;;;5009487;28;20279;-73
2022/04/11 06:32:14;;;;;;;5.40;3.00;;;6.70;99.90;;;;;;4980839;28;20192;-72
2022/04/11 06:34:39;;;;;;;3.43;3.10;;;6.80;99.90;;;;;;5012667;28;20194;-73
2022/04/11 06:37:05;;;;;;;3.70;2.97;;;6.90;99.90;;;;;;4972548;28;20271;-73
2022/04/11 06:39:31;;;;;;;3.70;2.63;;;7.00;99.90;;;;;;4954845;28;20181;-74
2022/04/11 06:41:57;;;;;;;2.73;2.40;;;7.10;99.90;;;;;;4972732;28;20318;-74
2022/04/11 06:44:24;;;;;;;3.03;2.63;;;7.20;99.90;;;;;;5004211;28;20402;-74
2022/04/11 06:46:52;;;;;;;3.97;2.70;;;7.30;99.90;;;;;;4975183;28;20183;-72
2022/04/11 06:49:18;;;;;;;5.30;3.10;;;7.40;99.90;;;;;;4973364;28;20184;-71
2022/04/11 06:51:43;;;;;;;3.43;2.77;;;7.50;99.90;;;;;;4974167;28;20230;-72
2022/04/11 06:54:09;;;;;;;4.83;3.13;;;7.60;99.90;;;;;;4973672;28;20187;-71
2022/04/11 06:56:37;;;;;;;3.17;2.40;;;7.70;99.90;;;;;;5020900;28;20181;-72
2022/04/11 06:59:05;;;;;;;3.17;2.33;;;7.80;99.90;;;;;;4973596;28;20192;-72
2022/04/11 07:01:31;;;;;;;4.07;2.70;;;7.90;99.90;;;;;;5012361;28;20285;-72
2022/04/11 07:03:57;;;;;;;5.07;2.60;;;8.00;99.90;;;;;;4965429;28;20279;-72
2022/04/11 07:06:23;;;;;;;4.60;2.60;;;8.10;99.90;;;;;;4989583;28;20263;-71
2022/04/11 07:08:50;;;;;;;3.47;2.27;;;8.30;99.90;;;;;;4994927;28;20276;-70
2022/04/11 07:11:18;;;;;;;3.30;2.50;;;8.40;99.90;;;;;;5009562;28;20264;-72
2022/04/11 07:13:44;;;;;;;3.90;2.77;;;8.50;99.90;;;;;;5006050;28;20180;-73
2022/04/11 07:16:09;;;;;;;4.10;2.60;;;8.60;99.90;;;;;;5001955;28;20188;-70
2022/04/11 07:18:36;;;;;;;4.10;2.73;;;8.70;99.90;;;;;;4973191;28;20180;-73
2022/04/11 07:21:02;;;;;;;4.23;3.13;;;8.80;99.90;;;;;;5029626;28;20268;-73
2022/04/11 07:23:29;;;;;;;3.97;2.47;;;8.90;99.90;;;;;;4999142;28;20227;-73
2022/04/11 07:25:57;;;;;;;2.97;2.17;;;9.00;99.90;;;;;;4972136;28;20231;-70
2022/04/11 07:28:25;;;;;;;3.67;2.30;;;9.10;99.90;;;;;;4985870;28;20176;-73
2022/04/11 07:30:53;;;;;;;6.13;2.80;;;9.20;99.90;;;;;;4964591;28;20475;-73
2022/04/11 07:33:21;;;;;;;2.67;2.20;;;9.30;99.90;;;;;;4963558;28;20184;-73
2022/04/11 07:35:50;;;;;;;3.07;2.20;;;9.30;99.90;;;;;;4974161;28;20214;-72
2022/04/11 07:38:19;;;;;;;5.20;2.40;;;9.40;99.90;;;;;;4979645;28;20173;-73
2022/04/11 07:40:45;;;;;;;3.60;2.60;;;9.40;99.90;;;;;;4969849;28;20177;-74
2022/04/11 07:43:12;;;;;;;4.37;2.50;;;9.50;99.90;;;;;;5001959;28;20223;-72
2022/04/11 07:45:38;;;;;;;4.83;2.77;;;9.60;99.90;;;;;;4995715;28;20278;-67
2022/04/11 07:48:06;;;;;;;3.83;2.57;;;9.60;99.90;;;;;;5004282;28;20264;-67
2022/04/11 07:50:35;;;;;;;4.13;2.50;;;9.70;99.90;;;;;;4974242;28;20343;-66
2022/04/11 07:53:03;;;;;;;3.93;2.23;;;9.80;99.90;;;;;;4978935;28;20184;-66
2022/04/11 07:55:28;;;;;;;3.23;2.30;;;9.90;99.90;;;;;;4975331;28;20211;-67
2022/04/11 07:57:54;;;;;;;4.63;2.40;;;10.00;99.90;;;;;;5000020;28;20187;-66
2022/04/11 08:00:23;;;;;;;4.68;2.50;;;10.00;99.90;;;;;;4972325;28;20192;-65
2022/04/11 08:02:57;;;;;;;5.72;3.47;;;10.10;99.90;;;;;;4968874;28;20185;-68
2022/04/11 08:05:26;;;;;;;3.20;2.40;;;10.20;99.90;;;;;;4984793;28;20216;-68
2022/04/11 08:07:52;;;;;;;4.43;2.58;;;10.30;99.90;;;;;;4971140;28;20228;-68
2022/04/11 08:10:18;;;;;;;3.20;2.25;;;10.30;99.90;;;;;;4966850;28;20191;-69
2022/04/11 08:12:56;;;;;;;4.68;2.90;;;10.30;99.90;;;;;;5004468;28;20172;-72
2022/04/11 08:15:27;;;;;;;5.13;3.33;;;10.50;99.90;;;;;;4970880;28;20220;-72
2022/04/11 08:17:56;;;;;;;4.25;2.60;;;10.50;99.90;;;;;;4984021;28;20207;-69
2022/04/11 08:20:27;;;;;;;5.00;2.30;;;10.60;99.90;;;;;;4979180;28;20188;-72
2022/04/11 08:22:58;;;;;;;4.45;2.72;;;10.60;99.90;;;;;;4967197;28;20274;-72
2022/04/11 08:25:26;;;;;;;3.33;2.83;;;10.70;99.90;;;;;;5001007;28;20251;-70
2022/04/11 08:27:54;;;;;;;3.28;2.65;;;10.70;99.90;;;;;;4999054;28;20409;-71
2022/04/11 08:30:25;;;;;;;5.20;2.47;;;10.80;99.90;;;;;;5020564;28;20177;-71
2022/04/11 08:32:51;;;;;;;3.08;2.53;;;10.90;99.90;;;;;;4975931;28;20207;-72
2022/04/11 08:35:24;;;;;;;4.70;2.70;;;10.90;99.90;;;;;;5014111;28;20196;-72
2022/04/11 08:37:52;;;;;;;3.58;2.55;;;11.00;99.90;;;;;;4984799;28;20195;-72
2022/04/11 08:40:19;;;;;;;3.55;2.25;;;11.10;99.90;;;;;;5003415;28;20180;-72
2022/04/11 08:42:48;;;;;;;10.40;3.05;;;11.20;99.90;;;;;;4967347;28;20233;-71
2022/04/11 08:45:17;;;;;;;4.38;2.70;;;11.20;99.90;;;;;;4996044;28;20197;-72
2022/04/11 08:47:45;;;;;;;4.38;2.60;;;11.30;99.90;;;;;;4990089;28;20284;-70
2022/04/11 08:50:12;;;;;;;3.05;2.53;;;11.40;99.90;;;;;;4972304;28;20246;-72
2022/04/11 08:52:38;;;;;;;3.75;2.72;;;11.50;99.90;;;;;;4994126;28;20237;-72
2022/04/11 08:55:09;;;;;;;4.18;2.70;;;11.50;99.90;;;;;;4999834;28;20204;-72
2022/04/11 08:57:38;;;;;;;3.15;2.40;;;11.60;99.90;;;;;;4963613;28;20205;-69
2022/04/11 09:00:12;;;;;;;3.28;2.00;;;11.60;99.90;;;;;;4959748;28;20417;-72
2022/04/11 09:02:41;;;;;;;3.00;2.22;;;11.70;99.90;;;;;;4999523;28;20183;-71
2022/04/11 09:05:10;;;;;;;4.45;2.50;;;11.80;99.90;;;;;;4995805;28;20200;-72
2022/04/11 09:07:59;;;;;;;3.58;2.08;;;11.80;99.90;;;;;;5002146;28;20184;-74
2022/04/11 09:10:38;;;;;;;3.47;2.25;;;12.00;99.90;;;;;;4970972;28;20172;-75
2022/04/11 09:13:09;;;;;;;2.65;2.05;;;12.00;99.90;;;;;;4993007;28;20204;-72
2022/04/11 09:15:50;;;;;;;4.05;2.35;;;12.10;99.90;;;;;;4968089;28;20172;-73
2022/04/11 09:18:17;;;;;;;3.00;2.13;;;12.10;99.90;;;;;;5002098;28;20172;-72
2022/04/11 09:20:45;;;;;;;3.35;2.10;;;12.20;99.90;;;;;;4971522;28;20238;-73
2022/04/11 09:23:21;;;;;;;2.72;1.95;;;12.20;99.90;;;;;;5001757;28;20207;-72
2022/04/11 09:25:50;;;;;;;3.22;1.90;;;12.30;99.90;;;;;;4957207;28;20219;-70
2022/04/11 09:28:15;;;;;;;2.70;1.95;;;12.40;99.90;;;;;;4979126;28;20197;-72
2022/04/11 09:30:45;;;;;;;4.07;1.90;;;12.40;99.90;;;;;;5023058;28;20211;-72
2022/04/11 09:33:11;;;;;;;2.25;1.67;;;12.50;99.90;;;;;;4977217;28;20171;-72
2022/04/11 09:35:45;;;;;;;3.08;2.08;;;12.60;99.90;;;;;;5003125;28;20181;-72
2022/04/11 09:38:30;;;;;;;2.70;1.80;;;12.80;99.90;;;;;;4982069;28;20257;-72
2022/04/11 09:40:56;;;;;;;1.90;1.60;;;12.80;99.90;;;;;;4971510;28;20238;-71
2022/04/11 09:43:30;;;;;;;4.68;2.00;;;13.00;99.90;;;;;;4990515;28;20184;-72
2022/04/11 09:45:57;;;;;;;3.03;1.98;;;13.00;99.90;;;;;;4979376;28;20200;-72
2022/04/11 09:48:30;;;;;;;4.43;2.20;;;13.10;99.90;;;;;;5003707;28;20194;-71
2022/04/11 09:50:58;;;;;;;2.35;1.70;;;13.20;99.90;;;;;;4968301;28;20197;-71
2022/04/11 09:53:33;;;;;;;2.90;1.80;;;13.30;99.90;;;;;;4998801;28;20267;-71
2022/04/11 09:56:04;;;;;;;2.25;1.40;;;13.40;99.90;;;;;;4962016;28;20167;-73
2022/04/11 09:58:32;;;;;;;3.15;1.83;;;13.50;99.90;;;;;;4987761;28;20195;-72
2022/04/11 10:01:00;;;;;;;2.17;1.50;;;13.60;99.90;;;;;;5009484;28;20168;-72
2022/04/11 10:03:27;;;;;;;2.63;1.90;;;13.80;99.90;;;;;;5023612;28;20363;-72
2022/04/11 10:05:54;;;;;;;2.55;1.50;;;14.20;99.90;;;;;;4996474;28;20331;-74
2022/04/11 10:08:26;;;;;;;3.17;1.65;;;14.60;99.90;;;;;;4998430;28;20181;-75
2022/04/11 10:10:55;;;;;;;3.30;1.70;;;15.00;99.90;;;;;;4952916;28;20367;-73
2022/04/11 10:13:21;;;;;;;5.95;1.70;;;15.40;99.90;;;;;;5001836;28;20410;-74
2022/04/11 10:15:50;;;;;;;2.22;1.50;;;15.70;99.90;;;;;;4969467;28;20265;-73
2022/04/11 10:18:25;;;;;;;2.13;1.60;;;16.10;99.90;;;;;;5001086;28;20198;-72
2022/04/11 10:20:58;;;;;;;2.58;1.58;;;16.40;99.90;;;;;;5028341;28;20171;-72
2022/04/11 10:23:35;;;;;;;2.35;1.80;;;16.60;99.90;;;;;;4986574;28;20201;-73
2022/04/11 10:26:11;;;;;;;3.30;1.95;;;16.90;99.90;;;;;;5017649;28;20178;-70
2022/04/11 10:28:43;;;;;;;3.38;1.70;;;17.10;99.90;;;;;;4998050;28;20184;-72
2022/04/11 10:31:13;;;;;;;2.13;1.70;;;17.30;99.90;;;;;;5008896;28;20265;-70
2022/04/11 10:33:48;;;;;;;2.38;1.92;;;17.40;97.70;;;;;;4972245;28;21590;-72
2022/04/11 10:36:34;;;;;;;2.60;1.85;;;17.40;96.60;;;;;;4977607;28;20242;-73
2022/04/11 10:39:14;;;;;;;1.73;1.42;;;17.40;93.60;;;;;;4971169;28;20237;-72
2022/04/11 10:41:58;;;;;;;2.80;1.80;;;17.40;94.00;;;;;;4966110;28;20231;-72
2022/04/11 10:44:50;;;;;;;3.45;1.92;;;17.50;94.60;;;;;;4956609;28;20292;-71
2022/04/11 10:47:15;;;;;;;2.17;1.70;;;17.60;94.80;;;;;;4979737;28;20560;-73
2022/04/11 10:49:50;;;;;;;2.58;1.73;;;17.70;99.00;;;;;;4987484;28;20346;-72
2022/04/11 10:52:32;;;;;;;2.72;1.73;;;17.90;90.90;;;;;;4988545;28;20256;-73
2022/04/11 10:55:04;;;;;;;4.53;2.10;;;18.00;91.80;;;;;;4991708;28;20215;-72
2022/04/11 10:57:47;;;;;;;3.58;1.63;;;18.10;93.00;;;;;;4965362;28;20307;-73
2022/04/11 11:00:20;;;;;;;1.77;1.60;;;18.10;92.70;;;;;;5021257;28;20169;-73
2022/04/11 11:03:10;;;;;;;3.53;1.67;;;18.00;92.20;;;;;;5059721;28;20232;-72
2022/04/11 11:05:38;;;;;;;2.67;1.40;;;18.00;92.10;;;;;;4984847;28;20176;-73
2022/04/11 11:10:55;;;;;;;1.95;1.30;;;18.00;92.50;;;;;;4969458;28;20251;-73
2022/04/11 11:13:29;;;;;;;2.70;1.60;;;18.00;92.10;;;;;;5022231;28;20176;-73
2022/04/11 11:15:56;;;;;;;2.50;1.60;;;18.10;90.60;;;;;;5038896;28;20175;-69
2022/04/11 11:18:22;;;;;;;2.97;1.95;;;18.20;95.10;;;;;;4971853;28;20204;-67
2022/04/11 11:20:56;;;;;;;2.17;1.73;;;18.30;95.50;;;;;;4996840;28;20180;-68
2022/04/11 11:23:25;;;;;;;2.33;1.60;;;18.30;93.90;;;;;;4966894;28;20577;-68
2022/04/11 11:25:53;;;;;;;2.80;1.50;;;18.40;94.50;;;;;;4998239;28;20172;-69
2022/04/11 11:28:19;;;;;;;3.85;1.83;;;18.50;96.10;;;;;;4963745;28;20215;-68
2022/04/11 11:30:45;;;;;;;3.50;1.80;;;18.50;90.30;;;;;;4995735;28;20183;-69
2022/04/11 11:33:17;;;;;;;2.25;1.50;;;18.50;92.70;;;;;;4998811;28;20185;-69
2022/04/11 11:35:55;;;;;;;3.88;1.65;;;18.50;91.20;;;;;;4974778;28;20354;-71
2022/04/11 11:38:28;;;;;;;1.55;1.40;;;18.50;90.50;;;;;;4977071;28;20199;-69
2022/04/11 11:40:59;;;;;;;1.90;1.30;;;18.50;91.50;;;;;;5003134;28;20176;-67
2022/04/11 11:43:29;;;;;;;3.83;1.40;;;18.50;92.20;;;;;;4992060;28;20183;-70
2022/04/11 11:46:01;;;;;;;2.38;1.70;;;18.50;92.20;;;;;;4969028;28;20183;-69
2022/04/11 11:48:28;;;;;;;2.45;1.58;;;18.60;92.70;;;;;;4993719;28;20222;-66
2022/04/11 11:50:55;;;;;;;3.33;1.38;;;18.60;93.50;;;;;;4984781;28;20204;-69
2022/04/11 11:53:26;;;;;;;2.45;1.40;;;18.70;95.20;;;;;;4988474;28;20189;-69
2022/04/11 11:55:59;;;;;;;3.53;1.60;;;18.90;95.60;;;;;;4971018;28;20220;-68
2022/04/11 11:58:36;;;;;;;3.58;1.50;;;19.00;93.90;;;;;;4987529;28;20206;-69
2022/04/11 12:01:03;;;;;;;1.85;1.52;;;19.10;90.90;;;;;;4987829;28;20208;-70
2022/04/11 12:06:21;;;;;;;2.72;1.67;;;19.20;96.10;;;;;;4957562;28;20207;-64
2022/04/11 12:08:55;;;;;;;2.80;1.55;;;19.30;93.90;;;;;;4956538;28;20286;-65
2022/04/11 12:11:24;;;;;;;2.53;1.50;;;19.30;90.50;;;;;;4972101;28;20176;-64
2022/04/11 12:13:59;;;;;;;4.63;1.40;;;19.40;91.60;;;;;;4996853;28;20218;-65
2022/04/11 12:16:29;;;;;;;4.60;1.40;;;19.40;90.90;;;;;;4954717;28;20258;-65
2022/04/11 12:18:59;;;;;;;1.88;1.35;;;19.50;94.80;;;;;;4990363;28;20185;-63
2022/04/11 12:21:28;;;;;;;1.70;1.60;;;19.60;94.70;;;;;;4997949;28;20196;-64
2022/04/11 12:23:59;;;;;;;2.70;1.80;;;19.70;86.00;;;;;;4971259;28;20249;-66
2022/04/11 12:26:27;;;;;;;1.80;1.48;;;19.80;87.20;;;;;;4999258;28;20208;-61
2022/04/11 12:28:53;;;;;;;2.45;1.35;;;19.90;90.20;;;;;;4997247;28;20191;-62
2022/04/11 12:31:19;;;;;;;1.98;1.33;;;20.00;93.00;;;;;;4969639;28;20184;-63
2022/04/11 12:33:48;;;;;;;2.53;1.30;;;20.10;88.40;;;;;;5028354;28;20232;-64
2022/04/11 12:36:16;;;;;;;4.65;2.38;;;20.10;90.40;;;;;;4978497;28;20177;-64
2022/04/11 12:38:57;;;;;;;4.43;2.17;;;20.20;78.90;;;;;;4972109;28;20176;-64
2022/04/11 12:41:44;;;;;;;2.75;2.00;;;20.30;80.80;;;;;;4975336;28;20199;-63
2022/04/11 12:44:19;;;;;;;2.08;1.40;;;20.40;80.10;;;;;;4971631;28;20199;-64
2022/04/11 12:46:55;;;;;;;2.65;1.67;;;20.50;89.70;;;;;;4999821;28;20211;-64
2022/04/11 12:49:21;;;;;;;3.28;1.60;;;20.50;76.40;;;;;;4972387;28;20195;-63
2022/04/11 12:51:57;;;;;;;1.58;1.25;;;20.50;79.40;;;;;;4976256;28;20176;-62
2022/04/11 12:54:25;;;;;;;3.58;1.52;;;20.50;74.40;;;;;;4977623;28;20216;-64
2022/04/11 12:57:00;;;;;;;2.00;1.30;;;20.50;85.80;;;;;;4971188;28;20202;-63
2022/04/11 12:59:29;;;;;;;2.35;1.27;;;20.60;87.10;;;;;;4965952;28;20218;-64
2022/04/11 13:01:59;;;;;;;2.75;1.80;;;20.70;70.20;;;;;;4967914;28;20187;-63
2022/04/11 13:04:24;;;;;;;2.28;1.50;;;20.80;74.80;;;;;;4974416;28;20216;-63
2022/04/11 13:06:51;;;;;;;2.00;1.42;;;20.80;76.70;;;;;;4970551;28;20236;-64
2022/04/11 13:09:25;;;;;;;3.15;1.83;;;20.80;72.80;;;;;;4995485;28;20295;-63
2022/04/11 13:11:55;;;;;;;2.03;1.50;;;20.80;68.20;;;;;;5002066;28;20179;-64
2022/04/11 13:14:21;;;;;;;1.92;1.30;;;20.80;72.10;;;;;;4966826;28;20315;-64
2022/04/11 13:19:35;;;;;;;1.65;1.40;;;20.70;71.90;;;;;;4975646;28;20187;-64
2022/04/11 13:22:02;;;;;;;2.33;1.50;;;20.60;70.70;;;;;;5017514;28;20172;-64
2022/04/11 13:24:29;;;;;;;2.10;1.52;;;20.60;73.00;;;;;;5047237;28;20187;-64
2022/04/11 13:26:54;;;;;;;2.67;1.48;;;20.70;73.80;;;;;;4997493;28;20196;-64
2022/04/11 13:29:20;;;;;;;1.42;1.30;;;20.70;73.10;;;;;;5007894;28;20211;-64
2022/04/11 13:31:48;;;;;;;2.38;1.35;;;20.70;74.80;;;;;;4986458;28;20185;-63
2022/04/11 13:34:19;;;;;;;1.67;1.33;;;20.80;74.30;;;;;;4982944;28;20212;-64
2022/04/11 13:36:44;;;;;;;1.48;1.20;;;20.90;75.60;;;;;;4994662;28;20184;-64
2022/04/11 13:39:12;;;;;;;2.17;1.27;;;21.00;74.60;;;;;;4969794;28;20176;-65
2022/04/11 13:41:40;;;;;;;2.15;1.30;;;21.00;73.80;;;;;;4980884;28;20180;-64
2022/04/11 13:44:06;;;;;;;2.00;1.33;;;21.10;71.70;;;;;;4989400;28;20177;-64
2022/04/11 13:46:31;;;;;;;2.70;1.40;;;21.10;72.60;;;;;;4992588;28;20204;-64
2022/04/11 13:49:01;;;;;;;2.38;1.40;;;21.10;75.50;;;;;;4963889;28;20181;-64
2022/04/11 13:51:27;;;;;;;3.55;1.67;;;21.20;68.90;;;;;;4968622;28;20177;-64
2022/04/11 13:53:54;;;;;;;1.88;1.50;;;21.30;72.90;;;;;;5002164;28;20229;-63
2022/04/11 13:56:21;;;;;;;3.10;1.70;;;21.30;71.90;;;;;;4981303;28;20200;-64
2022/04/11 13:58:47;;;;;;;1.67;1.30;;;21.30;71.20;;;;;;5013998;28;20173;-63
2022/04/11 14:01:16;;;;;;;2.72;1.70;;;21.40;68.90;;;;;;5003135;28;20187;-65
2022/04/11 14:03:42;;;;;;;2.63;1.30;;;21.40;68.30;;;;;;5000787;28;20355;-64
2022/04/11 14:06:08;;;;;;;2.78;1.70;;;21.40;69.40;;;;;;4965813;28;20271;-64
2022/04/11 14:08:36;;;;;;;2.45;1.40;;;21.40;68.30;;;;;;4996031;28;20454;-64
2022/04/11 14:11:05;;;;;;;2.55;1.40;;;21.50;71.20;;;;;;5002887;28;20185;-65
2022/04/11 14:13:34;;;;;;;3.30;1.70;;;21.50;71.10;;;;;;4996119;28;20330;-64
2022/04/11 14:16:03;;;;;;;2.63;1.50;;;21.50;62.60;;;;;;4979145;28;20271;-66
2022/04/11 14:18:34;;;;;;;2.47;1.48;;;21.50;64.40;;;;;;5005303;28;20176;-65
2022/04/11 14:21:01;;;;;;;3.00;1.60;;;21.50;60.00;;;;;;5000726;28;20203;-65
2022/04/11 14:23:29;;;;;;;3.58;1.42;;;21.50;62.30;;;;;;4973114;28;20248;-65
2022/04/11 14:25:57;;;;;;;3.55;1.50;;;21.40;62.80;;;;;;4976975;28;20195;-65
2022/04/11 14:28:23;;;;;;;2.45;1.90;;;21.40;65.60;;;;;;4998855;28;20184;-65
2022/04/11 14:30:49;;;;;;;2.50;1.55;;;21.30;62.70;;;;;;4966145;28;20199;-65
2022/04/11 14:33:17;;;;;;;2.17;1.48;;;21.30;64.10;;;;;;4991922;28;20177;-65
2022/04/11 14:35:45;;;;;;;2.13;1.20;;;21.30;61.50;;;;;;4972980;28;20280;-65
2022/04/11 14:38:14;;;;;;;1.73;1.20;;;21.30;64.40;;;;;;4965994;28;20180;-64
2022/04/11 14:40:41;;;;;;;2.60;1.42;;;21.30;64.50;;;;;;5006373;28;20186;-64
2022/04/11 14:43:10;;;;;;;2.35;1.42;;;21.30;64.30;;;;;;4975638;28;20186;-64
2022/04/11 14:45:36;;;;;;;3.30;1.40;;;21.30;63.30;;;;;;4971778;28;20176;-64
2022/04/11 14:48:02;;;;;;;2.05;1.30;;;21.40;63.20;;;;;;5002950;28;20207;-63
2022/04/11 14:50:29;;;;;;;1.38;1.20;;;21.40;63.90;;;;;;5035881;28;20208;-64
2022/04/11 14:52:54;;;;;;;1.48;1.00;;;21.50;62.90;;;;;;4998054;28;20176;-64
2022/04/11 14:55:22;;;;;;;1.40;1.13;;;21.50;64.40;;;;;;4974270;28;20275;-64
2022/04/11 14:57:48;;;;;;;2.78;1.42;;;21.60;65.90;;;;;;4993699;28;20181;-64
2022/04/11 15:00:14;;;;;;;2.63;1.48;;;21.70;63.10;;;;;;4989374;28;20173;-62
2022/04/11 15:02:40;;;;;;;2.58;1.30;;;21.80;64.60;;;;;;4986230;28;20212;-63
2022/04/11 15:05:06;;;;;;;2.60;1.10;;;21.80;61.40;;;;;;4971231;28;20188;-64
2022/04/11 15:07:33;;;;;;;2.38;1.33;;;21.80;63.20;;;;;;4972343;28;20187;-65
2022/04/11 15:10:02;;;;;;;2.85;1.33;;;21.80;61.30;;;;;;4972497;28;20460;-63
2022/04/11 15:12:27;;;;;;;2.35;1.38;;;21.80;63.50;;;;;;5010383;28;20246;-65
2022/04/11 15:14:55;;;;;;;1.77;1.20;;;21.80;60.30;;;;;;5005499;28;20228;-64
2022/04/11 15:17:21;;;;;;;2.42;1.30;;;21.80;58.50;;;;;;5042082;28;20238;-65
2022/04/11 15:19:48;;;;;;;2.28;1.30;;;21.70;59.50;;;;;;4984875;28;20219;-64
2022/04/11 15:22:16;;;;;;;2.50;1.20;;;21.70;58.80;;;;;;4974954;28;20366;-65
2022/04/11 15:24:42;;;;;;;2.13;1.30;;;21.60;55.80;;;;;;4963439;28;20227;-64
2022/04/11 15:27:08;;;;;;;3.13;1.70;;;21.50;56.40;;;;;;4969662;28;20257;-65
2022/04/11 15:29:34;;;;;;;2.55;1.30;;;21.50;57.10;;;;;;4963470;28;20204;-63
2022/04/11 15:32:06;;;;;;;2.90;1.40;;;21.50;57.50;;;;;;4996479;28;20184;-65
2022/04/11 15:34:35;;;;;;;1.92;1.13;;;21.50;54.40;;;;;;4968763;28;20208;-64
2022/04/11 15:37:00;;;;;;;2.35;1.30;;;21.40;57.40;;;;;;4999293;28;20200;-64
2022/04/11 15:39:28;;;;;;;2.03;1.10;;;21.40;58.70;;;;;;4968932;28;20314;-64
2022/04/11 15:41:54;;;;;;;2.58;1.20;;;21.30;59.30;;;;;;5000084;28;20185;-63
2022/04/11 15:44:22;;;;;;;3.03;1.60;;;21.30;59.10;;;;;;5047125;28;20210;-64
2022/04/11 15:46:47;;;;;;;1.50;1.30;;;21.20;57.90;;;;;;5011189;28;20242;-64
2022/04/11 15:49:13;;;;;;;2.25;1.50;;;21.20;58.30;;;;;;5004932;28;20184;-64
2022/04/11 15:51:39;;;;;;;2.35;1.60;;;21.10;56.90;;;;;;4965712;28;20191;-64
2022/04/11 15:54:08;;;;;;;2.65;1.65;;;21.00;57.00;;;;;;4998518;28;20201;-64
2022/04/11 15:56:36;;;;;;;2.70;1.60;;;20.90;56.20;;;;;;4967498;28;20192;-64
2022/04/11 15:59:03;;;;;;;1.70;1.38;;;20.90;55.60;;;;;;4963868;28;20203;-64
2022/04/11 16:01:29;;;;;;;2.10;1.17;;;20.80;56.70;;;;;;4976479;28;20177;-63
2022/04/11 16:03:55;;;;;;;2.55;1.50;;;20.80;56.50;;;;;;4999167;28;20192;-63
2022/04/11 16:06:26;;;;;;;1.73;1.35;;;20.60;56.00;;;;;;4994263;28;20191;-63
2022/04/11 16:08:51;;;;;;;1.40;1.10;;;20.60;56.20;;;;;;4999041;28;20245;-63
2022/04/11 16:11:17;;;;;;;3.10;1.38;;;20.50;57.30;;;;;;4957306;28;20208;-63
2022/04/11 16:13:43;;;;;;;1.73;1.40;;;20.50;58.20;;;;;;4994751;28;20213;-64
2022/04/11 16:16:13;;;;;;;1.92;1.33;;;20.40;59.00;;;;;;4990122;28;20169;-64
2022/04/11 16:18:43;;;;;;;1.73;1.33;;;20.30;58.10;;;;;;4965208;28;20223;-64
2022/04/11 16:21:09;;;;;;;1.75;1.35;;;20.30;55.40;;;;;;4973548;28;20183;-64
2022/04/11 16:23:37;;;;;;;2.22;1.50;;;20.20;57.30;;;;;;4974329;28;20184;-64
2022/04/11 16:26:04;;;;;;;2.50;1.55;;;20.10;57.00;;;;;;4980710;28;20200;-63
2022/04/11 16:28:32;;;;;;;2.45;1.60;;;20.10;58.20;;;;;;4966629;28;20176;-64
2022/04/11 16:30:57;;;;;;;2.40;1.52;;;20.00;57.90;;;;;;4966120;28;20173;-62
2022/04/11 16:33:23;;;;;;;2.67;1.33;;;19.90;58.60;;;;;;4966738;28;20210;-63
2022/04/11 16:35:49;;;;;;;2.05;1.55;;;19.80;58.50;;;;;;4968048;28;20208;-64
2022/04/11 16:38:15;;;;;;;1.80;1.60;;;19.70;57.50;;;;;;4965460;28;20203;-63
2022/04/11 16:40:40;;;;;;;2.65;1.65;;;19.60;56.80;;;;;;4978381;28;20172;-63
2022/04/11 16:43:06;;;;;;;2.88;1.60;;;19.50;57.80;;;;;;5001831;28;20176;-62
2022/04/11 16:45:32;;;;;;;3.38;1.52;;;19.40;58.10;;;;;;4967260;28;20239;-63
2022/04/11 16:47:58;;;;;;;2.00;1.60;;;19.40;58.50;;;;;;4963852;28;20456;-63
2022/04/11 16:50:24;;;;;;;3.10;1.83;;;19.30;58.60;;;;;;4996585;28;20195;-63
2022/04/11 16:52:50;;;;;;;2.85;1.67;;;19.20;59.40;;;;;;4997158;28;20200;-63
2022/04/11 16:55:16;;;;;;;2.05;1.58;;;19.20;59.20;;;;;;4968630;28;20199;-63
2022/04/11 16:57:44;;;;;;;2.50;1.70;;;19.10;59.00;;;;;;4999902;28;20177;-63
2022/04/11 17:00:12;;;;;;;2.72;1.67;;;19.00;59.30;;;;;;4969467;28;20197;-64
2022/04/11 17:02:38;;;;;;;1.80;1.60;;;19.00;58.50;;;;;;4995898;28;20180;-64
2022/04/11 17:05:04;;;;;;;2.00;1.60;;;19.00;60.10;;;;;;4958480;28;20200;-64
2022/04/11 17:07:30;;;;;;;2.63;1.70;;;18.90;59.60;;;;;;4963091;28;20211;-64
2022/04/11 17:09:55;;;;;;;1.98;1.67;;;18.90;59.80;;;;;;4998220;28;20180;-65
2022/04/11 17:12:23;;;;;;;2.20;1.63;;;18.80;60.60;;;;;;4990811;28;20663;-65
2022/04/11 17:14:49;;;;;;;2.45;1.50;;;18.80;60.80;;;;;;4987516;28;20204;-65
2022/04/11 17:20:00;;;;;;;2.90;1.95;;;18.70;60.90;;;;;;4990372;28;20215;-64
2022/04/11 17:22:28;;;;;;;3.33;2.00;;;18.60;60.50;;;;;;4971210;28;20191;-63
2022/04/11 17:24:56;;;;;;;2.58;1.70;;;18.60;60.70;;;;;;4963372;28;20339;-62
2022/04/11 17:27:21;;;;;;;2.60;1.70;;;18.60;60.80;;;;;;4993324;28;20180;-64
2022/04/11 17:29:52;;;;;;;3.17;1.75;;;18.50;59.40;;;;;;5002264;28;20180;-63
2022/04/11 17:32:17;;;;;;;1.92;1.48;;;18.50;59.80;;;;;;5002665;28;20208;-63
2022/04/11 17:34:45;;;;;;;2.17;1.42;;;18.40;60.50;;;;;;4970880;28;20215;-64
2022/04/11 17:37:11;;;;;;;2.53;1.83;;;18.30;59.90;;;;;;4996734;28;20184;-63
2022/04/11 17:39:37;;;;;;;2.55;1.92;;;18.30;60.60;;;;;;4958230;28;20188;-64
2022/04/11 17:42:02;;;;;;;1.98;1.67;;;18.30;61.90;;;;;;4998350;28;20172;-63
2022/04/11 17:44:28;;;;;;;2.42;1.98;;;18.20;59.90;;;;;;5002919;28;20210;-64
2022/04/11 17:46:54;;;;;;;2.22;1.60;;;18.20;59.70;;;;;;5003092;28;20188;-63
2022/04/11 17:49:20;;;;;;;2.40;1.77;;;18.10;61.30;;;;;;5003221;28;20184;-64
2022/04/11 17:51:48;;;;;;;3.17;1.67;;;18.00;62.10;;;;;;4987730;28;20187;-63
2022/04/11 17:54:14;;;;;;;1.90;1.50;;;18.00;62.70;;;;;;4962211;28;20207;-64
2022/04/11 17:56:39;;;;;;;1.60;1.48;;;17.90;62.90;;;;;;4997538;28;20237;-63
2022/04/11 17:59:06;;;;;;;1.95;1.40;;;17.80;63.20;;;;;;4969210;28;20184;-63
2022/04/11 18:01:34;;;;;;;10.20;5.95;;;17.80;63.70;;;;;;5003203;28;20429;-64
2022/04/11 18:04:00;;;;;;;10.23;6.70;;;17.70;63.40;;;;;;5003074;28;20180;-63
2022/04/11 18:06:27;;;;;;;10.35;6.57;;;17.70;64.60;;;;;;5003503;28;20195;-63
2022/04/11 18:08:57;;;;;;;5.53;3.70;;;17.60;64.80;;;;;;5055523;28;20201;-64
2022/04/11 18:11:23;;;;;;;3.65;2.85;;;17.60;64.40;;;;;;4980153;28;20172;-63
2022/04/11 18:13:52;;;;;;;2.30;1.90;;;17.50;64.40;;;;;;5000250;28;20191;-63
2022/04/11 18:16:18;;;;;;;4.22;2.10;;;17.40;63.90;;;;;;4967316;28;20335;-63
2022/04/11 18:18:45;;;;;;;2.35;1.55;;;17.30;64.00;;;;;;4978008;28;20193;-63
2022/04/11 18:21:11;;;;;;;2.33;1.60;;;17.20;64.50;;;;;;4973229;28;20259;-63
2022/04/11 18:23:36;;;;;;;2.10;1.30;;;17.10;64.50;;;;;;4991864;28;20277;-63
2022/04/11 18:26:02;;;;;;;2.25;1.45;;;17.10;64.60;;;;;;4966150;28;20180;-63
2022/04/11 18:31:36;;;;;;;1.80;1.42;;;17.00;65.00;;;;;;4973517;28;20195;-64
2022/04/11 18:34:03;;;;;;;2.13;1.60;;;16.90;63.80;;;;;;4969071;28;20268;-63